sensor_id;sensor_type;location;lat;lon;timestamp;pressure;altitude;pressure_sealevel;temperature;humidity
76994;BME280;66749;47.406;18.822;2023-07-30T00:00:13;99966.06;;;20.70;86.68
76994;BME280;66749;47.406;18.822;2023-07-30T00:00:45;99968.88;;;20.69;86.18
76994;BME280;66749;47.406;18.822;2023-07-30T00:01:19;99966.06;;;20.70;87.21
76994;BME280;66749;47.406;18.822;2023-07-30T00:01:51;99971.53;;;20.69;87.13
76994;BME280;66749;47.406;18.822;2023-07-30T00:02:24;99972.22;;;20.71;86.48
76994;BME280;66749;47.406;18.822;2023-07-30T00:02:56;99972.38;;;20.69;86.66
76994;BME280;66749;47.406;18.822;2023-07-30T00:03:28;99968.88;;;20.69;87.28
76994;BME280;66749;47.406;18.822;2023-07-30T00:04:00;99969.88;;;20.68;87.49
76994;BME280;66749;47.406;18.822;2023-07-30T00:04:32;99977.69;;;20.69;86.74
76994;BME280;66749;47.406;18.822;2023-07-30T00:05:04;99978.84;;;20.67;87.59
76994;BME280;66749;47.406;18.822;2023-07-30T00:05:36;99978.84;;;20.67;87.65
76994;BME280;66749;47.406;18.822;2023-07-30T00:06:08;99975.03;;;20.69;86.71
76994;BME280;66749;47.406;18.822;2023-07-30T00:06:39;99967.22;;;20.68;87.69
76994;BME280;66749;47.406;18.822;2023-07-30T00:07:12;99969.06;;;20.67;86.69
76994;BME280;66749;47.406;18.822;2023-07-30T00:07:44;99971.72;;;20.67;86.61
76994;BME280;66749;47.406;18.822;2023-07-30T00:08:16;99969.88;;;20.68;86.79
76994;BME280;66749;47.406;18.822;2023-07-30T00:08:48;99964.41;;;20.69;86.61
76994;BME280;66749;47.406;18.822;2023-07-30T00:09:19;99961.63;;;20.71;86.58
76994;BME280;66749;47.406;18.822;2023-07-30T00:09:51;99963.59;;;20.69;87.01
76994;BME280;66749;47.406;18.822;2023-07-30T00:10:23;99960.28;;;20.67;87.17
76994;BME280;66749;47.406;18.822;2023-07-30T00:10:59;99961.94;;;20.68;86.60
76994;BME280;66749;47.406;18.822;2023-07-30T00:11:30;99973.53;;;20.67;86.69
76994;BME280;66749;47.406;18.822;2023-07-30T00:12:04;99967.41;;;20.66;87.70
76994;BME280;66749;47.406;18.822;2023-07-30T00:12:37;99956.78;;;20.66;87.75
76994;BME280;66749;47.406;18.822;2023-07-30T00:13:09;99959.63;;;20.65;87.38
76994;BME280;66749;47.406;18.822;2023-07-30T00:13:40;99957.97;;;20.64;87.26
76994;BME280;66749;47.406;18.822;2023-07-30T00:14:12;99956.97;;;20.65;87.78
76994;BME280;66749;47.406;18.822;2023-07-30T00:14:44;99957.78;;;20.65;87.32
76994;BME280;66749;47.406;18.822;2023-07-30T00:15:16;99960.44;;;20.65;87.63
76994;BME280;66749;47.406;18.822;2023-07-30T00:15:49;99952.31;;;20.67;87.03
76994;BME280;66749;47.406;18.822;2023-07-30T00:16:21;99956.63;;;20.68;86.88
76994;BME280;66749;47.406;18.822;2023-07-30T00:16:52;99952.31;;;20.67;87.19
76994;BME280;66749;47.406;18.822;2023-07-30T00:17:24;99956.47;;;20.69;87.45
76994;BME280;66749;47.406;18.822;2023-07-30T00:17:56;99954.63;;;20.70;87.44
76994;BME280;66749;47.406;18.822;2023-07-30T00:18:28;99959.94;;;20.70;86.73
76994;BME280;66749;47.406;18.822;2023-07-30T00:19:00;99960.94;;;20.69;87.92
76994;BME280;66749;47.406;18.822;2023-07-30T00:19:32;99959.13;;;20.69;87.39
76994;BME280;66749;47.406;18.822;2023-07-30T00:20:07;99956.47;;;20.69;87.63
76994;BME280;66749;47.406;18.822;2023-07-30T00:20:40;99955.63;;;20.69;87.64
76994;BME280;66749;47.406;18.822;2023-07-30T00:21:12;99959.81;;;20.71;87.70
76994;BME280;66749;47.406;18.822;2023-07-30T00:21:44;99964.94;;;20.73;87.13
76994;BME280;66749;47.406;18.822;2023-07-30T00:22:18;99965.09;;;20.71;88.02
76994;BME280;66749;47.406;18.822;2023-07-30T00:22:53;99965.94;;;20.72;87.17
76994;BME280;66749;47.406;18.822;2023-07-30T00:23:25;99968.59;;;20.72;88.44
76994;BME280;66749;47.406;18.822;2023-07-30T00:23:57;99967.91;;;20.70;87.88
76994;BME280;66749;47.406;18.822;2023-07-30T00:24:29;99960.63;;;20.72;87.95
76994;BME280;66749;47.406;18.822;2023-07-30T00:25:01;99957.97;;;20.72;87.87
76994;BME280;66749;47.406;18.822;2023-07-30T00:25:33;99964.94;;;20.73;87.83
76994;BME280;66749;47.406;18.822;2023-07-30T00:26:05;99960.63;;;20.72;87.50
76994;BME280;66749;47.406;18.822;2023-07-30T00:26:37;99955.47;;;20.70;87.83
76994;BME280;66749;47.406;18.822;2023-07-30T00:27:10;99951.97;;;20.70;87.88
76994;BME280;66749;47.406;18.822;2023-07-30T00:27:42;99953.66;;;20.71;88.30
76994;BME280;66749;47.406;18.822;2023-07-30T00:28:14;99954.50;;;20.71;88.18
76994;BME280;66749;47.406;18.822;2023-07-30T00:28:46;99955.31;;;20.72;87.59
76994;BME280;66749;47.406;18.822;2023-07-30T00:29:18;99961.47;;;20.72;87.24
76994;BME280;66749;47.406;18.822;2023-07-30T00:29:50;99962.13;;;20.74;87.52
76994;BME280;66749;47.406;18.822;2023-07-30T00:30:22;99965.59;;;20.75;87.36
76994;BME280;66749;47.406;18.822;2023-07-30T00:30:53;99964.94;;;20.73;87.93
76994;BME280;66749;47.406;18.822;2023-07-30T00:31:25;99956.31;;;20.71;87.62
76994;BME280;66749;47.406;18.822;2023-07-30T00:31:57;99960.78;;;20.70;88.68
76994;BME280;66749;47.406;18.822;2023-07-30T00:32:29;99951.03;;;20.71;88.67
76994;BME280;66749;47.406;18.822;2023-07-30T00:33:01;99948.38;;;20.71;87.53
76994;BME280;66749;47.406;18.822;2023-07-30T00:33:33;99957.97;;;20.72;87.63
76994;BME280;66749;47.406;18.822;2023-07-30T00:34:05;99953.50;;;20.72;88.27
76994;BME280;66749;47.406;18.822;2023-07-30T00:34:36;99956.31;;;20.71;87.94
76994;BME280;66749;47.406;18.822;2023-07-30T00:35:09;99960.63;;;20.72;88.12
76994;BME280;66749;47.406;18.822;2023-07-30T00:35:41;99956.97;;;20.73;88.04
76994;BME280;66749;47.406;18.822;2023-07-30T00:36:12;99949.69;;;20.75;87.96
76994;BME280;66749;47.406;18.822;2023-07-30T00:36:44;99950.50;;;20.75;87.21
76994;BME280;66749;47.406;18.822;2023-07-30T00:37:16;99950.84;;;20.72;87.71
76994;BME280;66749;47.406;18.822;2023-07-30T00:37:48;99956.00;;;20.74;87.39
76994;BME280;66749;47.406;18.822;2023-07-30T00:38:21;99956.00;;;20.74;88.34
76994;BME280;66749;47.406;18.822;2023-07-30T00:38:53;99953.34;;;20.74;87.65
76994;BME280;66749;47.406;18.822;2023-07-30T00:39:25;99947.84;;;20.75;88.37
76994;BME280;66749;47.406;18.822;2023-07-30T00:39:56;99956.97;;;20.73;87.81
76994;BME280;66749;47.406;18.822;2023-07-30T00:40:28;99948.03;;;20.74;88.01
76994;BME280;66749;47.406;18.822;2023-07-30T00:41:00;99944.72;;;20.72;87.54
76994;BME280;66749;47.406;18.822;2023-07-30T00:41:32;99946.69;;;20.70;88.29
76994;BME280;66749;47.406;18.822;2023-07-30T00:42:04;99943.06;;;20.71;87.63
76994;BME280;66749;47.406;18.822;2023-07-30T00:42:36;99948.50;;;20.69;87.80
76994;BME280;66749;47.406;18.822;2023-07-30T00:43:08;99943.38;;;20.68;87.54
76994;BME280;66749;47.406;18.822;2023-07-30T00:43:40;99947.69;;;20.69;87.25
76994;BME280;66749;47.406;18.822;2023-07-30T00:44:12;99946.03;;;20.68;87.02
76994;BME280;66749;47.406;18.822;2023-07-30T00:44:44;99946.03;;;20.68;86.87
76994;BME280;66749;47.406;18.822;2023-07-30T00:45:15;99944.19;;;20.68;86.58
76994;BME280;66749;47.406;18.822;2023-07-30T00:45:48;99939.72;;;20.69;86.96
76994;BME280;66749;47.406;18.822;2023-07-30T00:46:20;99936.06;;;20.70;86.25
76994;BME280;66749;47.406;18.822;2023-07-30T00:46:53;99943.06;;;20.71;86.90
76994;BME280;66749;47.406;18.822;2023-07-30T00:47:25;99934.25;;;20.70;87.13
76994;BME280;66749;47.406;18.822;2023-07-30T00:47:58;99936.25;;;20.68;87.01
76994;BME280;66749;47.406;18.822;2023-07-30T00:48:30;99936.06;;;20.70;86.44
76994;BME280;66749;47.406;18.822;2023-07-30T00:49:02;99937.75;;;20.71;86.51
76994;BME280;66749;47.406;18.822;2023-07-30T00:49:34;99938.59;;;20.71;86.99
76994;BME280;66749;47.406;18.822;2023-07-30T00:50:07;99941.25;;;20.71;86.24
76994;BME280;66749;47.406;18.822;2023-07-30T00:50:40;99942.06;;;20.72;86.92
76994;BME280;66749;47.406;18.822;2023-07-30T00:51:13;99936.75;;;20.72;86.05
76994;BME280;66749;47.406;18.822;2023-07-30T00:51:45;99940.41;;;20.71;86.20
76994;BME280;66749;47.406;18.822;2023-07-30T00:52:18;99938.72;;;20.70;85.96
76994;BME280;66749;47.406;18.822;2023-07-30T00:52:51;99942.06;;;20.72;86.11
76994;BME280;66749;47.406;18.822;2023-07-30T00:53:24;99940.25;;;20.72;86.11
76994;BME280;66749;47.406;18.822;2023-07-30T00:53:57;99939.25;;;20.73;85.66
76994;BME280;66749;47.406;18.822;2023-07-30T00:54:29;99945.53;;;20.72;85.62
76994;BME280;66749;47.406;18.822;2023-07-30T00:55:02;99945.84;;;20.69;84.85
76994;BME280;66749;47.406;18.822;2023-07-30T00:55:35;99944.72;;;20.72;85.19
76994;BME280;66749;47.406;18.822;2023-07-30T00:56:07;99951.69;;;20.73;85.13
76994;BME280;66749;47.406;18.822;2023-07-30T00:56:48;99941.06;;;20.73;84.62
76994;BME280;66749;47.406;18.822;2023-07-30T00:57:22;99947.19;;;20.73;85.02
76994;BME280;66749;47.406;18.822;2023-07-30T00:57:54;99948.03;;;20.74;84.52
76994;BME280;66749;47.406;18.822;2023-07-30T00:58:26;99942.72;;;20.74;84.34
76994;BME280;66749;47.406;18.822;2023-07-30T00:58:59;99945.03;;;20.77;84.31
76994;BME280;66749;47.406;18.822;2023-07-30T00:59:31;99948.03;;;20.74;84.04
76994;BME280;66749;47.406;18.822;2023-07-30T01:00:03;99945.22;;;20.75;83.96
76994;BME280;66749;47.406;18.822;2023-07-30T01:00:37;99939.41;;;20.72;84.87
76994;BME280;66749;47.406;18.822;2023-07-30T01:01:09;99942.72;;;20.74;83.90
76994;BME280;66749;47.406;18.822;2023-07-30T01:01:43;99940.41;;;20.71;84.21
76994;BME280;66749;47.406;18.822;2023-07-30T01:02:18;99944.03;;;20.70;84.92
76994;BME280;66749;47.406;18.822;2023-07-30T01:02:51;99946.69;;;20.70;84.27
76994;BME280;66749;47.406;18.822;2023-07-30T01:03:23;99951.16;;;20.69;84.46
76994;BME280;66749;47.406;18.822;2023-07-30T01:03:56;99945.03;;;20.69;84.58
76994;BME280;66749;47.406;18.822;2023-07-30T01:04:28;99948.66;;;20.68;84.22
76994;BME280;66749;47.406;18.822;2023-07-30T01:05:01;99952.97;;;20.69;84.24
76994;BME280;66749;47.406;18.822;2023-07-30T01:05:33;99950.31;;;20.69;85.06
76994;BME280;66749;47.406;18.822;2023-07-30T01:06:05;99940.72;;;20.68;84.62
76994;BME280;66749;47.406;18.822;2023-07-30T01:06:37;99948.66;;;20.68;84.05
76994;BME280;66749;47.406;18.822;2023-07-30T01:07:09;99950.66;;;20.66;83.95
76994;BME280;66749;47.406;18.822;2023-07-30T01:07:41;99941.72;;;20.67;84.25
76994;BME280;66749;47.406;18.822;2023-07-30T01:08:12;99937.41;;;20.66;84.08
76994;BME280;66749;47.406;18.822;2023-07-30T01:08:47;99938.22;;;20.66;84.12
76994;BME280;66749;47.406;18.822;2023-07-30T01:09:19;99934.59;;;20.67;84.30
76994;BME280;66749;47.406;18.822;2023-07-30T01:09:52;99928.44;;;20.67;84.23
76994;BME280;66749;47.406;18.822;2023-07-30T01:10:25;99930.09;;;20.68;84.34
76994;BME280;66749;47.406;18.822;2023-07-30T01:10:58;99930.09;;;20.68;84.74
76994;BME280;66749;47.406;18.822;2023-07-30T01:11:30;99928.63;;;20.65;84.90
76994;BME280;66749;47.406;18.822;2023-07-30T01:12:03;99925.31;;;20.63;84.63
76994;BME280;66749;47.406;18.822;2023-07-30T01:12:37;99919.84;;;20.65;84.41
76994;BME280;66749;47.406;18.822;2023-07-30T01:13:09;99920.66;;;20.65;84.68
76994;BME280;66749;47.406;18.822;2023-07-30T01:13:42;99925.78;;;20.67;84.88
76994;BME280;66749;47.406;18.822;2023-07-30T01:14:18;99920.84;;;20.64;85.04
76994;BME280;66749;47.406;18.822;2023-07-30T01:14:52;99918.66;;;20.59;84.95
76994;BME280;66749;47.406;18.822;2023-07-30T01:15:25;99919.47;;;20.60;85.27
76994;BME280;66749;47.406;18.822;2023-07-30T01:15:57;99913.19;;;20.61;84.84
76994;BME280;66749;47.406;18.822;2023-07-30T01:16:29;99908.72;;;20.61;85.04
76994;BME280;66749;47.406;18.822;2023-07-30T01:17:01;99910.53;;;20.61;84.97
76994;BME280;66749;47.406;18.822;2023-07-30T01:17:34;99913.19;;;20.61;84.18
76994;BME280;66749;47.406;18.822;2023-07-30T01:18:06;99907.88;;;20.61;84.56
76994;BME280;66749;47.406;18.822;2023-07-30T01:18:38;99906.06;;;20.61;84.56
76994;BME280;66749;47.406;18.822;2023-07-30T01:19:10;99900.94;;;20.60;83.46
76994;BME280;66749;47.406;18.822;2023-07-30T01:19:42;99907.06;;;20.60;83.54
76994;BME280;66749;47.406;18.822;2023-07-30T01:20:13;99909.53;;;20.62;83.50
76994;BME280;66749;47.406;18.822;2023-07-30T01:20:45;99905.56;;;20.58;83.63
76994;BME280;66749;47.406;18.822;2023-07-30T01:21:17;99899.44;;;20.57;83.80
76994;BME280;66749;47.406;18.822;2023-07-30T01:21:49;99899.44;;;20.57;83.91
76994;BME280;66749;47.406;18.822;2023-07-30T01:22:22;99908.06;;;20.59;83.25
76994;BME280;66749;47.406;18.822;2023-07-30T01:22:54;99898.94;;;20.62;84.15
76994;BME280;66749;47.406;18.822;2023-07-30T01:23:26;99904.09;;;20.63;84.49
76994;BME280;66749;47.406;18.822;2023-07-30T01:23:58;99893.50;;;20.63;83.96
76994;BME280;66749;47.406;18.822;2023-07-30T01:24:29;99897.94;;;20.63;84.32
76994;BME280;66749;47.406;18.822;2023-07-30T01:25:02;99893.50;;;20.63;83.45
76994;BME280;66749;47.406;18.822;2023-07-30T01:25:36;99898.63;;;20.65;83.73
76994;BME280;66749;47.406;18.822;2023-07-30T01:26:11;99887.69;;;20.68;82.72
76994;BME280;66749;47.406;18.822;2023-07-30T01:26:46;99885.84;;;20.68;83.31
76994;BME280;66749;47.406;18.822;2023-07-30T01:27:27;99885.03;;;20.68;83.15
76994;BME280;66749;47.406;18.822;2023-07-30T01:28:01;99887.84;;;20.66;83.24
76994;BME280;66749;47.406;18.822;2023-07-30T01:28:43;99885.84;;;20.68;83.38
76994;BME280;66749;47.406;18.822;2023-07-30T01:29:31;99890.16;;;20.69;82.86
76994;BME280;66749;47.406;18.822;2023-07-30T01:30:30;99891.97;;;20.69;83.23
76994;BME280;66749;47.406;18.822;2023-07-30T01:31:01;99888.50;;;20.68;83.47
76994;BME280;66749;47.406;18.822;2023-07-30T01:31:35;99884.03;;;20.69;83.87
76994;BME280;66749;47.406;18.822;2023-07-30T01:32:11;99890.97;;;20.70;83.82
76994;BME280;66749;47.406;18.822;2023-07-30T01:32:45;99890.16;;;20.69;83.20
76994;BME280;66749;47.406;18.822;2023-07-30T01:33:20;99885.84;;;20.68;83.68
76994;BME280;66749;47.406;18.822;2023-07-30T01:33:54;99883.38;;;20.67;83.24
76994;BME280;66749;47.406;18.822;2023-07-30T01:34:28;99886.19;;;20.65;84.08
76994;BME280;66749;47.406;18.822;2023-07-30T01:35:02;99884.38;;;20.66;83.37
76994;BME280;66749;47.406;18.822;2023-07-30T01:35:36;99886.69;;;20.69;82.93
76994;BME280;66749;47.406;18.822;2023-07-30T01:36:14;99881.72;;;20.66;82.96
76994;BME280;66749;47.406;18.822;2023-07-30T01:36:49;99889.66;;;20.66;83.54
76994;BME280;66749;47.406;18.822;2023-07-30T01:37:22;99887.31;;;20.63;83.28
76994;BME280;66749;47.406;18.822;2023-07-30T01:37:55;99890.84;;;20.63;83.72
76994;BME280;66749;47.406;18.822;2023-07-30T01:38:27;99892.81;;;20.61;83.24
76994;BME280;66749;47.406;18.822;2023-07-30T01:39:00;99881.38;;;20.61;83.12
76994;BME280;66749;47.406;18.822;2023-07-30T01:39:33;99888.19;;;20.63;83.23
76994;BME280;66749;47.406;18.822;2023-07-30T01:40:09;99888.00;;;20.65;83.74
76994;BME280;66749;47.406;18.822;2023-07-30T01:40:41;99893.31;;;20.65;83.73
76994;BME280;66749;47.406;18.822;2023-07-30T01:41:13;99887.84;;;20.66;83.58
76994;BME280;66749;47.406;18.822;2023-07-30T01:41:45;99888.84;;;20.65;83.12
76994;BME280;66749;47.406;18.822;2023-07-30T01:42:17;99891.66;;;20.64;83.05
76994;BME280;66749;47.406;18.822;2023-07-30T01:42:49;99887.03;;;20.66;83.60
76994;BME280;66749;47.406;18.822;2023-07-30T01:43:21;99884.66;;;20.63;83.06
76994;BME280;66749;47.406;18.822;2023-07-30T01:43:54;99883.72;;;20.64;82.94
76994;BME280;66749;47.406;18.822;2023-07-30T01:44:26;99887.19;;;20.64;82.83
76994;BME280;66749;47.406;18.822;2023-07-30T01:44:57;99884.53;;;20.64;83.49
76994;BME280;66749;47.406;18.822;2023-07-30T01:45:29;99886.38;;;20.64;83.55
76994;BME280;66749;47.406;18.822;2023-07-30T01:46:01;99884.53;;;20.64;83.74
76994;BME280;66749;47.406;18.822;2023-07-30T01:46:33;99888.66;;;20.67;82.75
76994;BME280;66749;47.406;18.822;2023-07-30T01:47:05;99891.31;;;20.67;83.10
76994;BME280;66749;47.406;18.822;2023-07-30T01:47:37;99887.84;;;20.66;83.42
76994;BME280;66749;47.406;18.822;2023-07-30T01:48:09;99884.53;;;20.64;83.25
76994;BME280;66749;47.406;18.822;2023-07-30T01:48:41;99884.38;;;20.66;83.26
76994;BME280;66749;47.406;18.822;2023-07-30T01:49:13;99887.84;;;20.66;82.97
76994;BME280;66749;47.406;18.822;2023-07-30T01:49:44;99887.84;;;20.66;82.62
76994;BME280;66749;47.406;18.822;2023-07-30T01:50:16;99888.66;;;20.67;82.91
76994;BME280;66749;47.406;18.822;2023-07-30T01:50:48;99882.72;;;20.65;82.66
76994;BME280;66749;47.406;18.822;2023-07-30T01:51:20;99879.22;;;20.64;82.65
76994;BME280;66749;47.406;18.822;2023-07-30T01:51:52;99881.72;;;20.66;82.51
76994;BME280;66749;47.406;18.822;2023-07-30T01:52:24;99880.88;;;20.65;82.39
76994;BME280;66749;47.406;18.822;2023-07-30T01:52:56;99888.00;;;20.65;82.85
76994;BME280;66749;47.406;18.822;2023-07-30T01:53:27;99879.88;;;20.66;82.77
76994;BME280;66749;47.406;18.822;2023-07-30T01:53:59;99877.91;;;20.68;82.70
76994;BME280;66749;47.406;18.822;2023-07-30T01:54:31;99879.72;;;20.68;82.18
76994;BME280;66749;47.406;18.822;2023-07-30T01:55:03;99884.84;;;20.69;82.62
76994;BME280;66749;47.406;18.822;2023-07-30T01:55:35;99880.53;;;20.68;82.58
76994;BME280;66749;47.406;18.822;2023-07-30T01:56:07;99881.72;;;20.66;82.83
76994;BME280;66749;47.406;18.822;2023-07-30T01:56:39;99873.94;;;20.64;83.16
76994;BME280;66749;47.406;18.822;2023-07-30T01:57:10;99880.72;;;20.67;82.20
76994;BME280;66749;47.406;18.822;2023-07-30T01:57:44;99885.03;;;20.68;82.35
76994;BME280;66749;47.406;18.822;2023-07-30T01:58:16;99881.38;;;20.69;82.08
76994;BME280;66749;47.406;18.822;2023-07-30T01:58:48;99873.41;;;20.69;82.87
76994;BME280;66749;47.406;18.822;2023-07-30T01:59:19;99885.03;;;20.68;82.13
76994;BME280;66749;47.406;18.822;2023-07-30T01:59:51;99880.53;;;20.68;82.74
76994;BME280;66749;47.406;18.822;2023-07-30T02:00:23;99885.03;;;20.68;82.68
76994;BME280;66749;47.406;18.822;2023-07-30T02:00:55;99885.38;;;20.65;83.27
76994;BME280;66749;47.406;18.822;2023-07-30T02:01:27;99878.41;;;20.64;83.05
76994;BME280;66749;47.406;18.822;2023-07-30T02:01:59;99880.38;;;20.62;83.67
76994;BME280;66749;47.406;18.822;2023-07-30T02:02:31;99891.66;;;20.64;83.62
76994;BME280;66749;47.406;18.822;2023-07-30T02:03:03;99892.97;;;20.60;83.52
76994;BME280;66749;47.406;18.822;2023-07-30T02:03:35;99888.50;;;20.60;84.13
76994;BME280;66749;47.406;18.822;2023-07-30T02:04:07;99887.19;;;20.56;83.29
76994;BME280;66749;47.406;18.822;2023-07-30T02:04:39;99883.00;;;20.54;84.33
76994;BME280;66749;47.406;18.822;2023-07-30T02:05:10;99889.13;;;20.54;84.08
76994;BME280;66749;47.406;18.822;2023-07-30T02:05:42;99885.00;;;20.52;84.23
76994;BME280;66749;47.406;18.822;2023-07-30T02:06:14;99889.66;;;20.49;84.41
76994;BME280;66749;47.406;18.822;2023-07-30T02:06:46;99886.31;;;20.47;83.28
76994;BME280;66749;47.406;18.822;2023-07-30T02:07:18;99892.28;;;20.49;83.41
76994;BME280;66749;47.406;18.822;2023-07-30T02:07:50;99877.53;;;20.47;84.06
76994;BME280;66749;47.406;18.822;2023-07-30T02:08:21;99883.50;;;20.49;83.49
76994;BME280;66749;47.406;18.822;2023-07-30T02:08:53;99883.34;;;20.50;83.29
76994;BME280;66749;47.406;18.822;2023-07-30T02:09:25;99881.84;;;20.48;82.95
76994;BME280;66749;47.406;18.822;2023-07-30T02:09:57;99887.28;;;20.46;83.77
76994;BME280;66749;47.406;18.822;2023-07-30T02:10:29;99885.94;;;20.42;83.36
76994;BME280;66749;47.406;18.822;2023-07-30T02:11:01;99883.28;;;20.42;82.98
76994;BME280;66749;47.406;18.822;2023-07-30T02:11:32;99884.94;;;20.43;83.39
76994;BME280;66749;47.406;18.822;2023-07-30T02:12:05;99881.47;;;20.43;83.68
76994;BME280;66749;47.406;18.822;2023-07-30T02:12:36;99885.13;;;20.42;83.46
76994;BME280;66749;47.406;18.822;2023-07-30T02:13:08;99883.47;;;20.41;83.42
76994;BME280;66749;47.406;18.822;2023-07-30T02:13:40;99886.94;;;20.41;83.70
76994;BME280;66749;47.406;18.822;2023-07-30T02:14:12;99880.94;;;20.39;83.14
76994;BME280;66749;47.406;18.822;2023-07-30T02:14:44;99883.59;;;20.39;84.06
76994;BME280;66749;47.406;18.822;2023-07-30T02:15:16;99885.94;;;20.34;83.21
76994;BME280;66749;47.406;18.822;2023-07-30T02:15:48;99881.47;;;20.35;83.29
76994;BME280;66749;47.406;18.822;2023-07-30T02:16:20;99881.63;;;20.33;83.67
76994;BME280;66749;47.406;18.822;2023-07-30T02:16:52;99877.97;;;20.34;83.91
76994;BME280;66749;47.406;18.822;2023-07-30T02:17:24;99877.16;;;20.34;83.04
76994;BME280;66749;47.406;18.822;2023-07-30T02:17:55;99881.63;;;20.33;83.92
76994;BME280;66749;47.406;18.822;2023-07-30T02:18:27;99876.31;;;20.33;83.33
76994;BME280;66749;47.406;18.822;2023-07-30T02:18:59;99880.63;;;20.34;83.97
76994;BME280;66749;47.406;18.822;2023-07-30T02:19:31;99874.50;;;20.34;83.70
76994;BME280;66749;47.406;18.822;2023-07-30T02:20:03;99879.63;;;20.35;83.80
76994;BME280;66749;47.406;18.822;2023-07-30T02:20:35;99879.63;;;20.35;83.66
76994;BME280;66749;47.406;18.822;2023-07-30T02:21:07;99877.28;;;20.32;83.37
76994;BME280;66749;47.406;18.822;2023-07-30T02:21:39;99876.47;;;20.32;83.87
76994;BME280;66749;47.406;18.822;2023-07-30T02:22:14;99872.69;;;20.34;83.63
76994;BME280;66749;47.406;18.822;2023-07-30T02:22:46;99885.94;;;20.34;84.12
76994;BME280;66749;47.406;18.822;2023-07-30T02:23:18;99880.47;;;20.36;83.60
76994;BME280;66749;47.406;18.822;2023-07-30T02:23:50;99883.94;;;20.36;83.77
76994;BME280;66749;47.406;18.822;2023-07-30T02:24:22;99878.81;;;20.35;84.04
76994;BME280;66749;47.406;18.822;2023-07-30T02:24:53;99881.47;;;20.35;84.18
76994;BME280;66749;47.406;18.822;2023-07-30T02:25:28;99877.63;;;20.37;84.05
76994;BME280;66749;47.406;18.822;2023-07-30T02:26:00;99871.50;;;20.37;83.66
76994;BME280;66749;47.406;18.822;2023-07-30T02:26:32;99874.00;;;20.38;83.51
76994;BME280;66749;47.406;18.822;2023-07-30T02:27:04;99880.13;;;20.39;83.92
76994;BME280;66749;47.406;18.822;2023-07-30T02:27:36;99879.28;;;20.38;84.16
76994;BME280;66749;47.406;18.822;2023-07-30T02:28:09;99878.31;;;20.39;83.70
76994;BME280;66749;47.406;18.822;2023-07-30T02:28:44;99875.00;;;20.37;83.64
76994;BME280;66749;47.406;18.822;2023-07-30T02:29:16;99878.63;;;20.36;83.22
76994;BME280;66749;47.406;18.822;2023-07-30T02:29:48;99875.81;;;20.38;83.23
76994;BME280;66749;47.406;18.822;2023-07-30T02:30:19;99864.38;;;20.37;83.01
76994;BME280;66749;47.406;18.822;2023-07-30T02:30:51;99881.28;;;20.36;83.40
76994;BME280;66749;47.406;18.822;2023-07-30T02:31:23;99879.63;;;20.35;82.94
76994;BME280;66749;47.406;18.822;2023-07-30T02:31:55;99881.47;;;20.35;83.31
76994;BME280;66749;47.406;18.822;2023-07-30T02:32:27;99882.28;;;20.35;83.08
76994;BME280;66749;47.406;18.822;2023-07-30T02:33:01;99880.63;;;20.34;83.13
76994;BME280;66749;47.406;18.822;2023-07-30T02:33:33;99877.97;;;20.34;83.40
76994;BME280;66749;47.406;18.822;2023-07-30T02:34:04;99877.97;;;20.34;83.07
76994;BME280;66749;47.406;18.822;2023-07-30T02:34:36;99884.94;;;20.35;83.08
76994;BME280;66749;47.406;18.822;2023-07-30T02:35:08;99879.63;;;20.35;83.02
76994;BME280;66749;47.406;18.822;2023-07-30T02:35:40;99881.94;;;20.38;83.14
76994;BME280;66749;47.406;18.822;2023-07-30T02:36:14;99878.47;;;20.38;83.08
76994;BME280;66749;47.406;18.822;2023-07-30T02:36:46;99878.63;;;20.36;83.07
76994;BME280;66749;47.406;18.822;2023-07-30T02:37:17;99880.47;;;20.36;83.60
76994;BME280;66749;47.406;18.822;2023-07-30T02:37:49;99888.41;;;20.36;82.95
76994;BME280;66749;47.406;18.822;2023-07-30T02:38:21;99887.75;;;20.34;83.70
76994;BME280;66749;47.406;18.822;2023-07-30T02:38:53;99887.41;;;20.37;83.87
76994;BME280;66749;47.406;18.822;2023-07-30T02:39:25;99889.41;;;20.35;83.52
76994;BME280;66749;47.406;18.822;2023-07-30T02:39:57;99890.41;;;20.34;84.06
76994;BME280;66749;47.406;18.822;2023-07-30T02:40:28;99890.22;;;20.35;83.88
76994;BME280;66749;47.406;18.822;2023-07-30T02:41:00;99887.75;;;20.34;84.42
76994;BME280;66749;47.406;18.822;2023-07-30T02:41:32;99892.88;;;20.35;84.05
76994;BME280;66749;47.406;18.822;2023-07-30T02:42:04;99885.25;;;20.32;83.92
76994;BME280;66749;47.406;18.822;2023-07-30T02:42:36;99886.06;;;20.33;83.20
76994;BME280;66749;47.406;18.822;2023-07-30T02:43:08;99893.19;;;20.32;83.15
76994;BME280;66749;47.406;18.822;2023-07-30T02:43:40;99887.88;;;20.32;83.05
76994;BME280;66749;47.406;18.822;2023-07-30T02:44:12;99889.56;;;20.33;83.70
76994;BME280;66749;47.406;18.822;2023-07-30T02:44:44;99887.88;;;20.32;83.59
76994;BME280;66749;47.406;18.822;2023-07-30T02:45:16;99885.41;;;20.31;82.68
76994;BME280;66749;47.406;18.822;2023-07-30T02:45:48;99882.75;;;20.31;82.93
76994;BME280;66749;47.406;18.822;2023-07-30T02:46:21;99886.41;;;20.30;83.11
76994;BME280;66749;47.406;18.822;2023-07-30T02:46:52;99887.22;;;20.30;83.51
76994;BME280;66749;47.406;18.822;2023-07-30T02:47:24;99886.91;;;20.33;83.73
76994;BME280;66749;47.406;18.822;2023-07-30T02:47:56;99892.53;;;20.30;84.19
76994;BME280;66749;47.406;18.822;2023-07-30T02:48:28;99886.41;;;20.30;84.10
76994;BME280;66749;47.406;18.822;2023-07-30T02:49:00;99892.84;;;20.27;84.25
76994;BME280;66749;47.406;18.822;2023-07-30T02:49:32;99887.72;;;20.26;83.20
76994;BME280;66749;47.406;18.822;2023-07-30T02:50:04;99884.22;;;20.25;83.49